createdAt,value
2019-02-16T00:00:55.691Z,49.00
2019-02-16T00:03:31.564Z,49.03
2019-02-16T00:06:04.214Z,48.98
2019-02-16T00:08:35.871Z,48.93
2019-02-16T00:11:09.048Z,48.90
2019-02-16T00:13:41.330Z,48.99
2019-02-16T00:16:13.196Z,49.14
2019-02-16T00:18:44.770Z,49.28
2019-02-16T00:21:17.120Z,49.42
2019-02-16T00:23:48.745Z,49.53
2019-02-16T00:26:20.897Z,49.61
2019-02-16T00:28:52.585Z,49.71
2019-02-16T00:31:24.242Z,49.81
2019-02-16T00:34:01.305Z,49.91
2019-02-16T00:36:33.808Z,49.99
2019-02-16T00:39:06.184Z,50.01
2019-02-16T00:41:37.798Z,50.02
2019-02-16T00:44:12.128Z,50.08
2019-02-16T00:46:43.719Z,50.12
2019-02-16T00:49:15.392Z,50.25
2019-02-16T00:51:48.874Z,50.34
2019-02-16T00:54:20.500Z,50.39
2019-02-16T00:56:53.394Z,50.42
2019-02-16T00:59:25.143Z,50.47
2019-02-16T01:01:57.233Z,50.51
2019-02-16T01:04:33.814Z,50.56
2019-02-16T01:07:05.872Z,50.57
2019-02-16T01:09:37.508Z,50.60
2019-02-16T01:12:09.193Z,50.56
2019-02-16T01:14:40.813Z,50.50
2019-02-16T01:17:12.496Z,50.43
2019-02-16T01:19:44.190Z,50.38
2019-02-16T01:22:16.368Z,50.39
2019-02-16T01:24:48.240Z,50.47
2019-02-16T01:27:19.991Z,50.54
2019-02-16T01:29:53.237Z,50.63
2019-02-16T01:32:24.831Z,50.64
2019-02-16T01:34:57.793Z,50.67
2019-02-16T01:37:34.511Z,50.70
2019-02-16T01:40:10.338Z,50.78
2019-02-16T01:42:42.851Z,50.82
2019-02-16T01:45:15.637Z,50.79
2019-02-16T01:47:47.390Z,50.83
2019-02-16T01:50:20.106Z,50.86
2019-02-16T01:52:51.725Z,50.93
2019-02-16T01:55:24.013Z,51.00
2019-02-16T01:57:55.679Z,51.12
2019-02-16T02:00:28.006Z,51.16
2019-02-16T02:02:59.633Z,51.19
2019-02-16T02:05:31.261Z,51.18
2019-02-16T02:08:02.875Z,51.19
2019-02-16T02:10:35.563Z,51.18
2019-02-16T02:13:09.518Z,51.19
2019-02-16T02:15:41.115Z,51.15
2019-02-16T02:18:13.003Z,51.16
2019-02-16T02:20:44.987Z,51.21
2019-02-16T02:23:16.559Z,51.30
2019-02-16T02:25:49.042Z,51.38
2019-02-16T02:28:20.662Z,51.49
2019-02-16T02:30:52.656Z,51.56
2019-02-16T02:33:24.294Z,51.65
2019-02-16T02:35:55.898Z,51.74
2019-02-16T02:38:27.645Z,51.75
2019-02-16T02:41:00.067Z,51.77
2019-02-16T02:43:34.792Z,51.76
2019-02-16T02:46:06.499Z,51.74
2019-02-16T02:48:38.100Z,51.71
2019-02-16T02:51:09.721Z,51.74
2019-02-16T02:53:41.344Z,51.79
2019-02-16T02:56:13.811Z,51.84
2019-02-16T02:58:45.395Z,51.90
2019-02-16T03:01:17.615Z,51.94
2019-02-16T03:03:49.418Z,51.96
2019-02-16T03:06:22.106Z,52.00
2019-02-16T03:08:53.759Z,52.03
2019-02-16T03:11:26.098Z,52.05
2019-02-16T03:13:58.416Z,52.13
2019-02-16T03:16:30.168Z,52.24
2019-02-16T03:19:01.855Z,52.27
2019-02-16T03:21:33.480Z,52.27
2019-02-16T03:24:05.080Z,52.26
2019-02-16T03:27:13.314Z,52.26
2019-02-16T03:30:23.240Z,52.32
2019-02-16T03:33:22.426Z,52.34
2019-02-16T03:36:50.726Z,52.32
2019-02-16T03:39:29.919Z,52.44
2019-02-16T03:42:01.807Z,52.46
2019-02-16T03:44:33.411Z,52.54
2019-02-16T03:47:05.686Z,52.57
2019-02-16T03:49:37.269Z,52.58
2019-02-16T03:52:13.750Z,52.60
2019-02-16T03:54:42.266Z,52.64
2019-02-16T03:57:14.299Z,52.63
2019-02-16T03:59:46.934Z,52.69
2019-02-16T04:02:18.634Z,52.64
2019-02-16T04:04:50.930Z,52.61
2019-02-16T04:07:23.733Z,52.56
2019-02-16T04:09:55.453Z,52.51
2019-02-16T04:12:27.793Z,52.57
2019-02-16T04:14:59.400Z,52.60
2019-02-16T04:17:30.976Z,52.56
2019-02-16T04:20:03.219Z,52.55
2019-02-16T04:22:34.817Z,52.56
2019-02-16T04:25:08.000Z,52.65
2019-02-16T04:27:39.647Z,52.78
2019-02-16T04:30:11.338Z,52.93
2019-02-16T04:32:42.958Z,53.08
2019-02-16T04:35:15.625Z,53.16
2019-02-16T04:37:47.215Z,53.17
2019-02-16T04:40:18.822Z,53.16
2019-02-16T04:42:50.563Z,53.11
2019-02-16T04:45:22.178Z,53.03
2019-02-16T04:47:53.768Z,53.00
2019-02-16T04:50:26.057Z,53.00
2019-02-16T04:52:59.603Z,53.01
2019-02-16T04:55:31.214Z,53.00
2019-02-16T04:58:02.871Z,52.99
2019-02-16T05:00:34.511Z,52.94
2019-02-16T05:03:06.231Z,52.93
2019-02-16T05:05:38.563Z,52.90
2019-02-16T05:08:10.194Z,52.87
2019-02-16T05:10:41.828Z,52.89
2019-02-16T05:13:14.288Z,52.96
2019-02-16T05:15:45.874Z,53.01
2019-02-16T05:18:17.575Z,53.07
2019-02-16T05:20:50.013Z,53.10
2019-02-16T05:23:21.660Z,53.19
2019-02-16T05:25:53.296Z,53.28
2019-02-16T05:28:24.956Z,53.38
2019-02-16T05:30:56.590Z,53.47
2019-02-16T05:33:28.355Z,53.49
2019-02-16T05:36:00.577Z,53.48
2019-02-16T05:38:32.446Z,53.47
2019-02-16T05:41:04.088Z,53.44
2019-02-16T05:43:35.756Z,53.44
2019-02-16T05:46:07.788Z,53.51
2019-02-16T05:48:39.398Z,53.57
2019-02-16T05:51:13.225Z,53.60
2019-02-16T05:53:44.933Z,53.62
2019-02-16T05:56:16.719Z,53.61
2019-02-16T05:58:48.528Z,53.58
2019-02-16T06:01:20.270Z,53.61
2019-02-16T06:03:51.925Z,53.67
2019-02-16T06:06:24.331Z,53.77
2019-02-16T06:08:56.190Z,53.91
2019-02-16T06:11:27.921Z,53.98
2019-02-16T06:14:00.367Z,53.99
2019-02-16T06:16:31.977Z,53.94
2019-02-16T06:19:03.748Z,53.92
2019-02-16T06:21:35.377Z,53.86
2019-02-16T06:24:07.491Z,53.80
2019-02-16T06:26:39.307Z,53.75
2019-02-16T06:29:10.933Z,53.71
2019-02-16T06:31:42.677Z,53.66
2019-02-16T06:34:14.439Z,53.66
2019-02-16T06:36:46.141Z,53.70
2019-02-16T06:39:19.599Z,53.75
2019-02-16T06:41:51.417Z,53.75
2019-02-16T06:44:23.198Z,53.69
2019-02-16T06:46:54.911Z,53.73
2019-02-16T06:49:28.030Z,53.78
2019-02-16T06:51:59.795Z,53.84
2019-02-16T06:54:32.056Z,53.94
2019-02-16T06:57:21.640Z,54.00
2019-02-16T06:59:53.579Z,54.10
2019-02-16T07:02:26.570Z,54.18
2019-02-16T07:04:58.228Z,54.30
2019-02-16T07:07:30.117Z,54.35
2019-02-16T07:10:02.673Z,54.34
2019-02-16T07:12:34.303Z,54.28
2019-02-16T07:15:07.128Z,54.30
2019-02-16T07:18:06.701Z,54.32
2019-02-16T07:20:38.532Z,54.34
2019-02-16T07:23:10.158Z,54.35
2019-02-16T07:25:42.516Z,54.38
2019-02-16T07:28:14.206Z,54.42
2019-02-16T07:30:45.926Z,54.42
2019-02-16T07:33:17.539Z,54.46
2019-02-16T07:35:49.259Z,54.59
2019-02-16T07:38:21.860Z,54.67
2019-02-16T07:40:54.204Z,54.68
2019-02-16T07:43:56.833Z,54.74
2019-02-16T07:46:40.919Z,54.81
2019-02-16T07:49:20.128Z,54.75
2019-02-16T07:51:56.799Z,54.73
2019-02-16T07:54:50.478Z,54.74
2019-02-16T07:57:37.725Z,54.84
2019-02-16T08:00:18.058Z,54.92
2019-02-16T08:03:03.075Z,54.94
2019-02-16T08:05:42.584Z,54.95
2019-02-16T08:08:41.188Z,54.99
2019-02-16T08:11:44.638Z,55.21
2019-02-16T08:14:44.423Z,55.39
2019-02-16T08:17:30.710Z,55.33
2019-02-16T08:20:24.220Z,55.20
2019-02-16T08:23:21.155Z,55.11
2019-02-16T08:26:17.714Z,55.04
2019-02-16T08:29:21.606Z,54.97
2019-02-16T08:32:21.254Z,54.91
2019-02-16T08:35:25.871Z,54.88
2019-02-16T08:38:10.407Z,54.87
2019-02-16T08:40:55.759Z,54.83
2019-02-16T08:43:47.358Z,54.81
2019-02-16T08:46:41.372Z,54.76
2019-02-16T08:49:33.373Z,54.68
2019-02-16T08:52:26.669Z,54.62
2019-02-16T08:55:20.415Z,54.58
2019-02-16T08:58:19.872Z,54.52
2019-02-16T09:01:07.507Z,54.51
2019-02-16T09:03:54.488Z,54.45
2019-02-16T09:06:57.669Z,54.42
2019-02-16T09:09:51.207Z,54.37
2019-02-16T09:12:40.682Z,54.31
2019-02-16T09:15:28.763Z,54.29
2019-02-16T09:18:24.440Z,54.29
2019-02-16T09:21:15.046Z,54.28
2019-02-16T09:24:06.944Z,54.28
2019-02-16T09:27:10.676Z,54.28
2019-02-16T09:30:04.505Z,54.28
2019-02-16T09:32:43.711Z,54.23
2019-02-16T09:35:43.897Z,54.20
2019-02-16T09:38:23.128Z,54.17
2019-02-16T09:41:23.762Z,54.12
2019-02-16T09:44:20.205Z,54.08
2019-02-16T09:47:16.887Z,53.98
2019-02-16T09:50:16.521Z,53.94
2019-02-16T09:53:05.890Z,53.89
2019-02-16T09:56:00.030Z,53.82
2019-02-16T09:58:50.567Z,53.70
2019-02-16T10:01:40.119Z,53.59
2019-02-16T10:04:19.460Z,53.55
2019-02-16T10:07:11.405Z,53.43
2019-02-16T10:10:06.086Z,53.29
2019-02-16T10:12:51.671Z,53.21
2019-02-16T10:15:45.371Z,53.15
2019-02-16T10:18:47.551Z,53.10
2019-02-16T10:21:43.096Z,53.01
2019-02-16T10:24:36.770Z,52.90
2019-02-16T10:27:21.791Z,52.78
2019-02-16T10:30:11.076Z,52.74
2019-02-16T10:33:12.704Z,52.61
2019-02-16T10:36:12.504Z,52.49
2019-02-16T10:39:30.646Z,52.43
2019-02-16T10:42:22.464Z,52.39
2019-02-16T10:45:16.547Z,52.36
2019-02-16T10:48:09.816Z,52.25
2019-02-16T10:50:53.959Z,52.15
2019-02-16T10:53:34.135Z,52.05
2019-02-16T10:56:27.911Z,51.97
2019-02-16T10:59:25.106Z,51.84
2019-02-16T11:02:07.389Z,51.81
2019-02-16T11:04:56.839Z,51.68
2019-02-16T11:07:47.889Z,51.59
2019-02-16T11:10:39.948Z,51.51
2019-02-16T11:13:29.579Z,51.46
2019-02-16T11:16:21.359Z,51.32
2019-02-16T11:19:20.892Z,51.19
2019-02-16T11:22:11.233Z,51.15
2019-02-16T11:25:01.779Z,51.09
2019-02-16T11:27:52.398Z,50.99
2019-02-16T11:30:43.039Z,50.83
2019-02-16T11:33:25.533Z,50.75
2019-02-16T11:36:18.924Z,50.67
2019-02-16T11:39:10.259Z,50.63
2019-02-16T11:42:16.131Z,50.45
2019-02-16T11:45:08.793Z,50.39
2019-02-16T11:48:03.042Z,50.34
2019-02-16T11:50:54.560Z,50.27
2019-02-16T11:53:33.652Z,50.13
2019-02-16T11:56:22.221Z,50.09
2019-02-16T11:59:15.909Z,50.02
2019-02-16T12:02:12.403Z,50.00
2019-02-16T12:04:52.658Z,49.91
2019-02-16T12:07:47.801Z,49.81
2019-02-16T12:10:37.148Z,49.81
2019-02-16T12:13:20.557Z,49.73
2019-02-16T12:16:04.397Z,49.66
2019-02-16T12:18:45.168Z,49.60
2019-02-16T12:21:34.380Z,49.46
2019-02-16T12:24:23.753Z,49.39
2019-02-16T12:27:20.321Z,49.32
2019-02-16T12:30:11.609Z,49.21
2019-02-16T12:32:54.176Z,49.13
2019-02-16T12:35:50.710Z,49.08
2019-02-16T12:38:40.468Z,49.04
2019-02-16T12:41:36.653Z,48.98
2019-02-16T12:44:42.871Z,48.73
2019-02-16T12:47:36.753Z,48.64
2019-02-16T12:50:33.254Z,48.50
2019-02-16T12:53:22.902Z,48.39
2019-02-16T12:56:24.424Z,48.29
2019-02-16T12:59:16.030Z,48.20
2019-02-16T13:02:13.924Z,48.02
2019-02-16T13:04:56.411Z,47.95
2019-02-16T13:07:48.735Z,48.00
2019-02-16T13:10:45.515Z,47.95
2019-02-16T13:13:31.618Z,47.83
2019-02-16T13:16:10.472Z,47.59
2019-02-16T13:18:59.909Z,47.64
2019-02-16T13:21:53.311Z,47.54
2019-02-16T13:24:40.850Z,47.45
2019-02-16T13:27:21.105Z,47.38
2019-02-16T13:30:04.370Z,47.29
2019-02-16T13:33:10.509Z,47.23
2019-02-16T13:36:04.704Z,47.10
2019-02-16T13:38:55.574Z,47.02
2019-02-16T13:41:36.785Z,46.90
2019-02-16T13:44:20.450Z,46.81
2019-02-16T13:47:23.546Z,46.58
2019-02-16T13:50:02.922Z,46.51
2019-02-16T13:52:53.278Z,46.41
2019-02-16T14:01:32.038Z,46.05
2019-02-16T14:04:30.808Z,46.02
2019-02-16T14:07:12.667Z,45.97
2019-02-16T14:10:01.800Z,45.88
2019-02-16T14:12:51.179Z,45.75
2019-02-16T14:15:54.610Z,45.67
2019-02-16T14:18:26.369Z,45.65
2019-02-16T14:20:58.258Z,45.57
2019-02-16T14:23:29.911Z,45.42
2019-02-16T14:31:04.281Z,45.01
2019-02-16T14:33:36.291Z,44.90
2019-02-16T14:36:09.623Z,44.79
2019-02-16T14:38:50.301Z,44.68
2019-02-16T14:41:21.998Z,44.60
2019-02-16T14:43:53.851Z,44.50
2019-02-16T14:46:26.712Z,44.36
2019-02-16T14:48:59.729Z,44.29
2019-02-16T14:51:31.504Z,44.09
2019-02-16T14:54:03.218Z,43.99
2019-02-16T14:56:34.943Z,43.90
2019-02-16T14:59:06.584Z,43.66
2019-02-16T15:01:38.351Z,43.61
2019-02-16T15:04:10.119Z,43.55
2019-02-16T15:06:43.090Z,43.42
2019-02-16T15:09:14.833Z,43.30
2019-02-16T15:11:46.558Z,43.21
2019-02-16T15:14:18.236Z,43.17
2019-02-16T15:16:50.810Z,43.10
2019-02-16T15:19:22.666Z,43.05
2019-02-16T15:21:54.895Z,42.88
2019-02-16T15:24:26.578Z,42.88
2019-02-16T15:26:59.368Z,42.83
2019-02-16T15:29:31.293Z,42.82
2019-02-16T15:32:03.517Z,42.78
2019-02-16T15:34:35.465Z,42.75
2019-02-16T15:37:07.700Z,42.78
2019-02-16T15:39:39.589Z,42.77
2019-02-16T15:42:11.515Z,42.76
2019-02-16T15:44:43.225Z,42.74
2019-02-16T15:47:15.383Z,42.71
2019-02-16T15:49:47.031Z,42.75
2019-02-16T15:52:18.944Z,42.75
2019-02-16T15:54:50.854Z,42.78
2019-02-16T15:57:25.694Z,42.79
2019-02-16T15:59:57.609Z,42.71
2019-02-16T16:02:29.274Z,42.75
2019-02-16T16:05:01.746Z,42.73
2019-02-16T16:07:33.529Z,42.71
2019-02-16T16:10:27.197Z,42.73
2019-02-16T16:13:07.457Z,42.74
2019-02-16T16:15:57.494Z,42.83
2019-02-16T16:18:44.348Z,42.84
2019-02-16T16:21:33.486Z,42.82
2019-02-16T16:24:42.439Z,42.83
2019-02-16T16:27:38.901Z,42.81
2019-02-16T16:30:28.444Z,42.83
2019-02-16T16:33:24.823Z,42.79
2019-02-16T16:36:21.682Z,42.74
2019-02-16T16:39:10.507Z,42.72
2019-02-16T16:42:10.518Z,42.72
2019-02-16T16:44:58.391Z,42.66
2019-02-16T16:48:01.039Z,42.66
2019-02-16T16:50:53.274Z,42.57
2019-02-16T16:53:47.677Z,42.57
2019-02-16T16:56:30.549Z,42.51
2019-02-16T16:59:21.111Z,42.48
2019-02-16T17:02:23.912Z,42.49
2019-02-16T17:05:03.828Z,42.48
2019-02-16T17:07:55.242Z,42.50
2019-02-16T17:10:45.810Z,42.50
2019-02-16T17:13:51.539Z,42.52
2019-02-16T17:16:37.794Z,42.53
2019-02-16T17:19:28.729Z,42.56
2019-02-16T17:22:18.161Z,42.62
2019-02-16T17:25:05.345Z,42.76
2019-02-16T17:27:50.709Z,42.92
2019-02-16T17:30:34.972Z,43.05
2019-02-16T17:33:24.614Z,43.14
2019-02-16T17:36:21.128Z,43.20
2019-02-16T17:39:20.506Z,43.21
2019-02-16T17:42:10.234Z,43.29
2019-02-16T17:44:53.081Z,43.36
2019-02-16T17:47:41.781Z,43.48
2019-02-16T17:50:32.351Z,43.68
2019-02-16T17:53:23.001Z,43.88
2019-02-16T17:56:25.818Z,44.08
2019-02-16T17:59:19.465Z,44.20
2019-02-16T18:01:59.633Z,44.28
2019-02-16T18:05:08.721Z,44.34
2019-02-16T18:07:51.208Z,44.43
2019-02-16T18:10:50.660Z,44.62
2019-02-16T18:13:47.599Z,44.80
2019-02-16T18:16:47.940Z,44.93
2019-02-16T18:19:34.033Z,44.97
2019-02-16T18:22:30.466Z,44.99
2019-02-16T18:25:19.586Z,45.00
2019-02-16T18:28:12.685Z,44.95
2019-02-16T18:31:07.962Z,44.86
2019-02-16T18:33:58.522Z,44.83
2019-02-16T18:36:45.171Z,44.87
2019-02-16T18:39:44.619Z,44.91
2019-02-16T18:42:33.935Z,45.11
2019-02-16T18:45:21.683Z,45.29
2019-02-16T18:48:07.162Z,45.43
2019-02-16T18:51:05.001Z,45.54
2019-02-16T18:54:01.381Z,45.58
2019-02-16T18:56:51.422Z,45.59
2019-02-16T18:59:51.242Z,45.63
2019-02-16T19:02:35.825Z,45.67
2019-02-16T19:05:22.897Z,45.68
2019-02-16T19:08:12.360Z,45.71
2019-02-16T19:11:10.146Z,45.66
2019-02-16T19:13:59.593Z,45.70
2019-02-16T19:16:51.256Z,45.81
2019-02-16T19:19:40.529Z,45.99
2019-02-16T19:22:21.765Z,46.17
2019-02-16T19:25:12.447Z,46.37
2019-02-16T19:28:00.165Z,46.60
2019-02-16T19:30:54.600Z,46.77
2019-02-16T19:33:43.890Z,46.98
2019-02-16T19:36:26.931Z,47.09
2019-02-16T19:39:32.784Z,47.13
2019-02-16T19:42:26.150Z,47.13
2019-02-16T19:45:15.422Z,47.15
2019-02-16T19:48:24.003Z,47.21
2019-02-16T19:51:17.583Z,47.21
2019-02-16T19:54:05.908Z,47.13
2019-02-16T19:56:59.229Z,47.19
2019-02-16T19:59:43.134Z,47.27
2019-02-16T20:02:43.126Z,47.36
2019-02-16T20:05:26.422Z,47.46
2019-02-16T20:08:11.385Z,47.53
2019-02-16T20:10:50.028Z,47.63
2019-02-16T20:13:40.650Z,47.73
2019-02-16T20:16:41.171Z,47.79
2019-02-16T20:19:36.387Z,47.73
2019-02-16T20:22:26.922Z,47.72
2019-02-16T20:25:11.700Z,47.76
2019-02-16T20:28:05.294Z,47.74
2019-02-16T20:30:54.708Z,47.77
2019-02-16T20:36:39.357Z,47.88
2019-02-16T20:39:28.855Z,47.93
2019-02-16T20:42:20.157Z,47.99
2019-02-16T20:45:11.057Z,47.97
2019-02-16T20:48:16.932Z,47.98
2019-02-16T20:51:07.473Z,48.00
2019-02-16T20:53:58.105Z,48.01
2019-02-16T20:56:41.382Z,48.07
2019-02-16T20:59:32.485Z,48.11
2019-02-16T21:02:26.580Z,48.19
2019-02-16T21:05:17.535Z,48.24
2019-02-16T21:08:10.270Z,48.26
2019-02-16T21:10:49.745Z,48.30
2019-02-16T21:13:53.872Z,48.32
2019-02-16T21:17:01.200Z,48.33
2019-02-16T21:19:39.955Z,48.23
2019-02-16T21:22:21.708Z,48.21
2019-02-16T21:25:12.324Z,48.33
2019-02-16T21:28:03.002Z,48.46
2019-02-16T21:30:44.542Z,48.50
2019-02-16T21:33:38.296Z,48.54
2019-02-16T21:36:31.639Z,48.62
2019-02-16T21:39:25.053Z,48.66
2019-02-16T21:42:03.108Z,48.68
2019-02-16T21:44:55.162Z,48.68
2019-02-16T21:47:45.914Z,48.70
2019-02-16T21:50:39.779Z,48.74
2019-02-16T21:53:33.521Z,48.92
2019-02-16T21:56:28.021Z,49.04
2019-02-16T21:59:21.582Z,49.19
2019-02-16T22:02:10.823Z,49.24
2019-02-16T22:04:52.497Z,49.27
2019-02-16T22:07:48.408Z,49.26
2019-02-16T22:10:38.609Z,49.31
2019-02-16T22:13:10.352Z,49.27
2019-02-16T22:15:44.071Z,49.22
2019-02-16T22:18:16.081Z,49.31
2019-02-16T22:20:48.126Z,49.48
2019-02-16T22:23:19.849Z,49.68
2019-02-16T22:25:52.052Z,49.83
2019-02-16T22:28:30.889Z,49.95
2019-02-16T22:30:57.673Z,49.97
2019-02-16T22:33:35.403Z,49.96
2019-02-16T22:36:07.679Z,49.96
2019-02-16T22:38:43.880Z,49.92
2019-02-16T22:41:16.262Z,49.96
2019-02-16T22:43:48.380Z,49.98
2019-02-16T22:46:20.157Z,50.08
2019-02-16T22:48:53.473Z,50.13
2019-02-16T22:51:25.196Z,50.13
2019-02-16T22:53:56.860Z,50.13
2019-02-16T22:56:28.545Z,50.10
2019-02-16T22:59:00.248Z,50.03
2019-02-16T23:01:32.425Z,49.99
2019-02-16T23:04:04.145Z,50.02
2019-02-16T23:06:35.860Z,50.05
2019-02-16T23:09:21.282Z,50.11
2019-02-16T23:11:52.977Z,50.15
2019-02-16T23:14:24.813Z,50.19
2019-02-16T23:16:56.557Z,50.28
2019-02-16T23:19:28.206Z,50.41
2019-02-16T23:21:59.956Z,50.58
2019-02-16T23:24:31.668Z,50.71
2019-02-16T23:27:03.724Z,50.88
2019-02-16T23:29:35.778Z,51.04
2019-02-16T23:32:07.630Z,51.16
2019-02-16T23:34:39.226Z,51.22
2019-02-16T23:37:10.952Z,51.26
2019-02-16T23:39:42.580Z,51.25
2019-02-16T23:42:14.319Z,51.19
2019-02-16T23:44:46.075Z,51.17
2019-02-16T23:47:17.961Z,51.17
2019-02-16T23:49:49.581Z,51.19
2019-02-16T23:52:21.223Z,51.25
2019-02-16T23:54:53.154Z,51.36
2019-02-16T23:57:24.846Z,51.52
2019-02-16T23:59:56.522Z,51.62
